sensor_id;sensor_type;location;lat;lon;timestamp;P1;durP1;ratioP1;P2;durP2;ratioP2
29320;SDS011;16323;51.130;6.612;2023-03-01T09:36:35;19.65;;;5.07;;
29320;SDS011;16323;51.130;6.612;2023-03-01T09:39:02;10.82;;;3.65;;
29320;SDS011;16323;51.130;6.612;2023-03-01T09:41:36;8.88;;;3.65;;
29320;SDS011;16323;51.130;6.612;2023-03-01T09:44:12;8.55;;;3.25;;
29320;SDS011;16323;51.130;6.612;2023-03-01T09:46:46;7.00;;;3.53;;
29320;SDS011;16323;51.130;6.612;2023-03-01T09:49:14;7.10;;;3.70;;
29320;SDS011;16323;51.130;6.612;2023-03-01T09:51:47;7.82;;;3.30;;
29320;SDS011;16323;51.130;6.612;2023-03-01T09:54:22;5.95;;;3.83;;
29320;SDS011;16323;51.130;6.612;2023-03-01T09:56:53;5.30;;;3.25;;
29320;SDS011;16323;51.130;6.612;2023-03-01T09:59:31;5.68;;;3.47;;
29320;SDS011;16323;51.130;6.612;2023-03-01T10:02:11;5.03;;;3.40;;
29320;SDS011;16323;51.130;6.612;2023-03-01T10:04:50;7.15;;;3.65;;
29320;SDS011;16323;51.130;6.612;2023-03-01T10:07:25;5.55;;;3.28;;
29320;SDS011;16323;51.130;6.612;2023-03-01T10:09:57;4.93;;;3.17;;
29320;SDS011;16323;51.130;6.612;2023-03-01T10:12:27;5.00;;;3.05;;
29320;SDS011;16323;51.130;6.612;2023-03-01T10:15:00;6.65;;;3.60;;
29320;SDS011;16323;51.130;6.612;2023-03-01T10:17:33;9.18;;;3.45;;
29320;SDS011;16323;51.130;6.612;2023-03-01T10:20:13;5.32;;;3.25;;
29320;SDS011;16323;51.130;6.612;2023-03-01T10:22:48;7.15;;;3.40;;
29320;SDS011;16323;51.130;6.612;2023-03-01T10:25:20;6.75;;;3.00;;
29320;SDS011;16323;51.130;6.612;2023-03-01T10:28:04;5.38;;;3.55;;
29320;SDS011;16323;51.130;6.612;2023-03-01T10:30:37;6.28;;;3.45;;
29320;SDS011;16323;51.130;6.612;2023-03-01T10:33:09;5.40;;;3.38;;
29320;SDS011;16323;51.130;6.612;2023-03-01T10:35:43;5.85;;;3.22;;
29320;SDS011;16323;51.130;6.612;2023-03-01T10:38:11;6.07;;;3.25;;
29320;SDS011;16323;51.130;6.612;2023-03-01T10:40:49;6.03;;;3.20;;
29320;SDS011;16323;51.130;6.612;2023-03-01T10:43:17;6.47;;;3.58;;
29320;SDS011;16323;51.130;6.612;2023-03-01T10:45:45;5.32;;;3.42;;
29320;SDS011;16323;51.130;6.612;2023-03-01T10:48:13;4.88;;;3.05;;
29320;SDS011;16323;51.130;6.612;2023-03-01T10:50:41;5.20;;;3.33;;
29320;SDS011;16323;51.130;6.612;2023-03-01T10:53:21;4.45;;;2.72;;
29320;SDS011;16323;51.130;6.612;2023-03-01T10:56:01;5.22;;;3.33;;
29320;SDS011;16323;51.130;6.612;2023-03-01T10:58:30;5.13;;;3.33;;
29320;SDS011;16323;51.130;6.612;2023-03-01T11:00:58;6.38;;;3.80;;
29320;SDS011;16323;51.130;6.612;2023-03-01T11:03:27;10.50;;;3.72;;
29320;SDS011;16323;51.130;6.612;2023-03-01T11:06:00;6.47;;;3.13;;
29320;SDS011;16323;51.130;6.612;2023-03-01T11:08:38;4.18;;;2.63;;
29320;SDS011;16323;51.130;6.612;2023-03-01T11:11:14;6.32;;;3.20;;
29320;SDS011;16323;51.130;6.612;2023-03-01T11:13:52;5.40;;;3.00;;
29320;SDS011;16323;51.130;6.612;2023-03-01T11:16:24;6.45;;;3.25;;
29320;SDS011;16323;51.130;6.612;2023-03-01T11:18:57;7.78;;;3.38;;
29320;SDS011;16323;51.130;6.612;2023-03-01T11:21:26;5.47;;;3.08;;
29320;SDS011;16323;51.130;6.612;2023-03-01T11:23:58;5.38;;;3.20;;
29320;SDS011;16323;51.130;6.612;2023-03-01T11:26:27;4.50;;;3.28;;
29320;SDS011;16323;51.130;6.612;2023-03-01T11:28:58;5.72;;;2.72;;
29320;SDS011;16323;51.130;6.612;2023-03-01T11:31:30;6.15;;;3.28;;
29320;SDS011;16323;51.130;6.612;2023-03-01T11:33:59;5.45;;;3.20;;
29320;SDS011;16323;51.130;6.612;2023-03-01T11:36:32;5.35;;;2.97;;
29320;SDS011;16323;51.130;6.612;2023-03-01T11:39:04;7.00;;;3.33;;
29320;SDS011;16323;51.130;6.612;2023-03-01T11:41:39;6.32;;;3.30;;
29320;SDS011;16323;51.130;6.612;2023-03-01T11:44:10;5.22;;;2.75;;
29320;SDS011;16323;51.130;6.612;2023-03-01T11:49:50;5.38;;;3.15;;
29320;SDS011;16323;51.130;6.612;2023-03-01T11:52:39;6.85;;;3.38;;
29320;SDS011;16323;51.130;6.612;2023-03-01T11:55:35;6.70;;;3.25;;
29320;SDS011;16323;51.130;6.612;2023-03-01T11:58:17;5.50;;;3.40;;
29320;SDS011;16323;51.130;6.612;2023-03-01T12:01:00;6.05;;;3.08;;
29320;SDS011;16323;51.130;6.612;2023-03-01T12:03:39;6.15;;;2.90;;
29320;SDS011;16323;51.130;6.612;2023-03-01T12:06:35;6.68;;;3.10;;
29320;SDS011;16323;51.130;6.612;2023-03-01T12:09:17;5.07;;;3.15;;
29320;SDS011;16323;51.130;6.612;2023-03-01T12:11:57;6.25;;;3.10;;
29320;SDS011;16323;51.130;6.612;2023-03-01T12:14:41;6.25;;;3.55;;
29320;SDS011;16323;51.130;6.612;2023-03-01T12:17:30;4.88;;;2.88;;
29320;SDS011;16323;51.130;6.612;2023-03-01T12:23:15;7.10;;;3.17;;
29320;SDS011;16323;51.130;6.612;2023-03-01T12:25:57;5.68;;;3.63;;
29320;SDS011;16323;51.130;6.612;2023-03-01T12:28:41;6.20;;;3.20;;
29320;SDS011;16323;51.130;6.612;2023-03-01T12:31:30;6.95;;;3.50;;
29320;SDS011;16323;51.130;6.612;2023-03-01T12:34:09;3.95;;;2.72;;
29320;SDS011;16323;51.130;6.612;2023-03-01T12:36:58;5.18;;;3.40;;
29320;SDS011;16323;51.130;6.612;2023-03-01T12:39:39;7.32;;;3.70;;
29320;SDS011;16323;51.130;6.612;2023-03-01T12:42:17;5.93;;;3.30;;
29320;SDS011;16323;51.130;6.612;2023-03-01T12:44:57;5.93;;;3.42;;
29320;SDS011;16323;51.130;6.612;2023-03-01T12:47:49;6.25;;;3.25;;
29320;SDS011;16323;51.130;6.612;2023-03-01T12:50:26;7.05;;;3.78;;
29320;SDS011;16323;51.130;6.612;2023-03-01T12:53:02;5.03;;;3.22;;
29320;SDS011;16323;51.130;6.612;2023-03-01T12:55:29;7.72;;;3.42;;
29320;SDS011;16323;51.130;6.612;2023-03-01T12:58:02;6.07;;;3.28;;
29320;SDS011;16323;51.130;6.612;2023-03-01T13:00:37;5.05;;;2.88;;
29320;SDS011;16323;51.130;6.612;2023-03-01T13:03:15;5.18;;;2.88;;
29320;SDS011;16323;51.130;6.612;2023-03-01T13:05:55;3.90;;;2.70;;
29320;SDS011;16323;51.130;6.612;2023-03-01T13:08:31;5.05;;;3.05;;
29320;SDS011;16323;51.130;6.612;2023-03-01T13:11:05;5.32;;;2.60;;
29320;SDS011;16323;51.130;6.612;2023-03-01T13:13:40;4.93;;;2.40;;
29320;SDS011;16323;51.130;6.612;2023-03-01T13:16:22;6.35;;;3.20;;
29320;SDS011;16323;51.130;6.612;2023-03-01T13:19:08;5.93;;;2.83;;
29320;SDS011;16323;51.130;6.612;2023-03-01T13:21:40;4.70;;;2.72;;
29320;SDS011;16323;51.130;6.612;2023-03-01T13:27:21;4.05;;;2.15;;
29320;SDS011;16323;51.130;6.612;2023-03-01T13:29:50;5.57;;;2.95;;
29320;SDS011;16323;51.130;6.612;2023-03-01T13:32:20;5.18;;;2.58;;
29320;SDS011;16323;51.130;6.612;2023-03-01T13:34:52;4.10;;;2.42;;
29320;SDS011;16323;51.130;6.612;2023-03-01T13:37:21;5.25;;;2.63;;
29320;SDS011;16323;51.130;6.612;2023-03-01T13:39:57;5.53;;;2.63;;
29320;SDS011;16323;51.130;6.612;2023-03-01T13:42:36;7.28;;;2.55;;
29320;SDS011;16323;51.130;6.612;2023-03-01T13:45:14;4.07;;;2.58;;
29320;SDS011;16323;51.130;6.612;2023-03-01T13:47:46;3.42;;;2.50;;
29320;SDS011;16323;51.130;6.612;2023-03-01T13:50:16;4.70;;;2.30;;
29320;SDS011;16323;51.130;6.612;2023-03-01T13:52:48;4.85;;;2.38;;
29320;SDS011;16323;51.130;6.612;2023-03-01T13:55:19;3.78;;;2.25;;
29320;SDS011;16323;51.130;6.612;2023-03-01T13:57:50;4.20;;;2.45;;
29320;SDS011;16323;51.130;6.612;2023-03-01T14:00:33;3.95;;;2.40;;
29320;SDS011;16323;51.130;6.612;2023-03-01T14:05:57;4.35;;;2.53;;
29320;SDS011;16323;51.130;6.612;2023-03-01T14:08:31;4.47;;;2.63;;
29320;SDS011;16323;51.130;6.612;2023-03-01T14:11:06;4.47;;;2.10;;
29320;SDS011;16323;51.130;6.612;2023-03-01T14:14:09;2.97;;;1.88;;
29320;SDS011;16323;51.130;6.612;2023-03-01T14:16:58;4.72;;;2.20;;
29320;SDS011;16323;51.130;6.612;2023-03-01T14:19:35;4.60;;;2.13;;
29320;SDS011;16323;51.130;6.612;2023-03-01T14:22:04;3.10;;;1.98;;
29320;SDS011;16323;51.130;6.612;2023-03-01T14:24:51;3.75;;;2.10;;
29320;SDS011;16323;51.130;6.612;2023-03-01T14:27:20;4.15;;;2.28;;
29320;SDS011;16323;51.130;6.612;2023-03-01T14:29:56;3.13;;;2.00;;
29320;SDS011;16323;51.130;6.612;2023-03-01T14:32:25;2.13;;;1.77;;
29320;SDS011;16323;51.130;6.612;2023-03-01T14:34:54;3.55;;;1.88;;
29320;SDS011;16323;51.130;6.612;2023-03-01T14:37:22;3.88;;;2.38;;
29320;SDS011;16323;51.130;6.612;2023-03-01T14:39:52;3.45;;;2.00;;
29320;SDS011;16323;51.130;6.612;2023-03-01T14:42:20;6.32;;;2.22;;
29320;SDS011;16323;51.130;6.612;2023-03-01T14:44:50;2.50;;;1.67;;
29320;SDS011;16323;51.130;6.612;2023-03-01T14:47:23;2.90;;;1.98;;
29320;SDS011;16323;51.130;6.612;2023-03-01T14:49:57;3.95;;;1.98;;
29320;SDS011;16323;51.130;6.612;2023-03-01T14:52:27;4.35;;;2.08;;
29320;SDS011;16323;51.130;6.612;2023-03-01T14:55:00;3.92;;;2.00;;
29320;SDS011;16323;51.130;6.612;2023-03-01T14:57:30;4.15;;;2.10;;
29320;SDS011;16323;51.130;6.612;2023-03-01T14:59:57;3.08;;;2.03;;
29320;SDS011;16323;51.130;6.612;2023-03-01T15:02:29;3.17;;;2.15;;
29320;SDS011;16323;51.130;6.612;2023-03-01T15:05:00;3.42;;;2.10;;
29320;SDS011;16323;51.130;6.612;2023-03-01T15:07:30;3.78;;;1.95;;
29320;SDS011;16323;51.130;6.612;2023-03-01T15:09:59;2.63;;;1.98;;
29320;SDS011;16323;51.130;6.612;2023-03-01T15:12:38;4.38;;;2.30;;
29320;SDS011;16323;51.130;6.612;2023-03-01T15:15:23;3.10;;;1.90;;
29320;SDS011;16323;51.130;6.612;2023-03-01T15:18:02;3.25;;;2.00;;
29320;SDS011;16323;51.130;6.612;2023-03-01T15:20:33;3.90;;;1.95;;
29320;SDS011;16323;51.130;6.612;2023-03-01T15:23:03;3.83;;;2.20;;
29320;SDS011;16323;51.130;6.612;2023-03-01T15:25:31;3.67;;;1.83;;
29320;SDS011;16323;51.130;6.612;2023-03-01T15:28:00;2.55;;;1.80;;
29320;SDS011;16323;51.130;6.612;2023-03-01T15:30:29;4.20;;;2.22;;
29320;SDS011;16323;51.130;6.612;2023-03-01T15:33:27;3.40;;;1.77;;
29320;SDS011;16323;51.130;6.612;2023-03-01T15:35:57;3.53;;;2.00;;
29320;SDS011;16323;51.130;6.612;2023-03-01T15:38:27;3.35;;;2.28;;
29320;SDS011;16323;51.130;6.612;2023-03-01T15:40:57;3.30;;;2.05;;
29320;SDS011;16323;51.130;6.612;2023-03-01T15:43:41;3.40;;;2.10;;
29320;SDS011;16323;51.130;6.612;2023-03-01T15:46:20;3.03;;;1.80;;
29320;SDS011;16323;51.130;6.612;2023-03-01T15:48:50;3.60;;;1.95;;
29320;SDS011;16323;51.130;6.612;2023-03-01T15:51:22;4.10;;;2.10;;
29320;SDS011;16323;51.130;6.612;2023-03-01T15:53:55;4.68;;;2.17;;
29320;SDS011;16323;51.130;6.612;2023-03-01T15:56:25;4.35;;;1.70;;
29320;SDS011;16323;51.130;6.612;2023-03-01T15:58:52;3.55;;;2.20;;
29320;SDS011;16323;51.130;6.612;2023-03-01T16:01:19;4.30;;;2.08;;
29320;SDS011;16323;51.130;6.612;2023-03-01T16:03:46;2.70;;;1.73;;
29320;SDS011;16323;51.130;6.612;2023-03-01T16:06:13;3.17;;;2.08;;
29320;SDS011;16323;51.130;6.612;2023-03-01T16:08:41;2.95;;;2.00;;
29320;SDS011;16323;51.130;6.612;2023-03-01T16:11:10;3.13;;;1.85;;
29320;SDS011;16323;51.130;6.612;2023-03-01T16:13:41;4.70;;;1.90;;
29320;SDS011;16323;51.130;6.612;2023-03-01T16:16:09;3.85;;;2.17;;
29320;SDS011;16323;51.130;6.612;2023-03-01T16:18:40;7.07;;;2.17;;
29320;SDS011;16323;51.130;6.612;2023-03-01T16:21:09;3.65;;;1.90;;
29320;SDS011;16323;51.130;6.612;2023-03-01T16:23:38;6.85;;;2.08;;
29320;SDS011;16323;51.130;6.612;2023-03-01T16:26:06;6.07;;;2.20;;
29320;SDS011;16323;51.130;6.612;2023-03-01T16:28:34;6.72;;;1.98;;
29320;SDS011;16323;51.130;6.612;2023-03-01T16:31:00;5.18;;;2.20;;
29320;SDS011;16323;51.130;6.612;2023-03-01T16:33:27;3.60;;;1.95;;
29320;SDS011;16323;51.130;6.612;2023-03-01T16:35:54;4.68;;;2.15;;
29320;SDS011;16323;51.130;6.612;2023-03-01T16:38:21;2.65;;;1.95;;
29320;SDS011;16323;51.130;6.612;2023-03-01T16:40:50;3.58;;;1.90;;
29320;SDS011;16323;51.130;6.612;2023-03-01T16:43:17;3.00;;;1.98;;
29320;SDS011;16323;51.130;6.612;2023-03-01T16:45:44;2.55;;;1.75;;
29320;SDS011;16323;51.130;6.612;2023-03-01T16:48:11;4.60;;;2.00;;
29320;SDS011;16323;51.130;6.612;2023-03-01T16:50:39;4.43;;;2.08;;
29320;SDS011;16323;51.130;6.612;2023-03-01T16:53:06;4.75;;;2.50;;
29320;SDS011;16323;51.130;6.612;2023-03-01T16:55:33;3.13;;;1.92;;
29320;SDS011;16323;51.130;6.612;2023-03-01T16:58:01;3.83;;;2.20;;
29320;SDS011;16323;51.130;6.612;2023-03-01T17:00:29;3.35;;;1.98;;
29320;SDS011;16323;51.130;6.612;2023-03-01T17:02:56;3.42;;;1.90;;
29320;SDS011;16323;51.130;6.612;2023-03-01T17:05:22;3.45;;;1.80;;
29320;SDS011;16323;51.130;6.612;2023-03-01T17:07:50;3.38;;;1.92;;
29320;SDS011;16323;51.130;6.612;2023-03-01T17:10:20;3.40;;;1.80;;
29320;SDS011;16323;51.130;6.612;2023-03-01T17:12:47;2.55;;;1.65;;
29320;SDS011;16323;51.130;6.612;2023-03-01T17:15:16;2.65;;;1.60;;
29320;SDS011;16323;51.130;6.612;2023-03-01T17:17:43;3.35;;;1.83;;
29320;SDS011;16323;51.130;6.612;2023-03-01T17:20:12;4.78;;;1.80;;
29320;SDS011;16323;51.130;6.612;2023-03-01T17:22:39;3.22;;;1.70;;
29320;SDS011;16323;51.130;6.612;2023-03-01T17:25:07;3.20;;;1.65;;
29320;SDS011;16323;51.130;6.612;2023-03-01T17:27:35;4.15;;;2.05;;
29320;SDS011;16323;51.130;6.612;2023-03-01T17:30:02;4.80;;;2.45;;
29320;SDS011;16323;51.130;6.612;2023-03-01T17:32:32;3.60;;;1.85;;
29320;SDS011;16323;51.130;6.612;2023-03-01T17:34:58;3.10;;;1.90;;
29320;SDS011;16323;51.130;6.612;2023-03-01T17:37:25;3.38;;;1.60;;
29320;SDS011;16323;51.130;6.612;2023-03-01T17:39:52;3.80;;;1.77;;
29320;SDS011;16323;51.130;6.612;2023-03-01T17:42:19;3.38;;;1.83;;
29320;SDS011;16323;51.130;6.612;2023-03-01T17:44:46;2.80;;;1.80;;
29320;SDS011;16323;51.130;6.612;2023-03-01T17:47:12;3.03;;;1.77;;
29320;SDS011;16323;51.130;6.612;2023-03-01T17:49:40;2.50;;;1.70;;
29320;SDS011;16323;51.130;6.612;2023-03-01T17:52:07;3.10;;;1.90;;
29320;SDS011;16323;51.130;6.612;2023-03-01T17:54:34;3.47;;;1.88;;
29320;SDS011;16323;51.130;6.612;2023-03-01T17:57:01;2.92;;;1.83;;
29320;SDS011;16323;51.130;6.612;2023-03-01T17:59:28;2.97;;;1.95;;
29320;SDS011;16323;51.130;6.612;2023-03-01T18:01:57;3.33;;;1.98;;
29320;SDS011;16323;51.130;6.612;2023-03-01T18:04:25;4.03;;;1.73;;
29320;SDS011;16323;51.130;6.612;2023-03-01T18:06:53;2.92;;;1.85;;
29320;SDS011;16323;51.130;6.612;2023-03-01T18:09:21;4.63;;;1.73;;
29320;SDS011;16323;51.130;6.612;2023-03-01T18:11:47;3.55;;;1.88;;
29320;SDS011;16323;51.130;6.612;2023-03-01T18:14:14;3.08;;;1.90;;
29320;SDS011;16323;51.130;6.612;2023-03-01T18:16:41;3.38;;;1.70;;
29320;SDS011;16323;51.130;6.612;2023-03-01T18:19:09;2.63;;;2.00;;
29320;SDS011;16323;51.130;6.612;2023-03-01T18:21:36;2.90;;;1.95;;
29320;SDS011;16323;51.130;6.612;2023-03-01T18:24:05;3.00;;;1.63;;
29320;SDS011;16323;51.130;6.612;2023-03-01T18:26:32;6.00;;;2.05;;
29320;SDS011;16323;51.130;6.612;2023-03-01T18:28:59;2.75;;;1.83;;
29320;SDS011;16323;51.130;6.612;2023-03-01T18:31:28;2.80;;;1.80;;
29320;SDS011;16323;51.130;6.612;2023-03-01T18:33:57;3.00;;;2.00;;
29320;SDS011;16323;51.130;6.612;2023-03-01T18:36:26;3.75;;;2.08;;
29320;SDS011;16323;51.130;6.612;2023-03-01T18:38:54;3.58;;;1.98;;
29320;SDS011;16323;51.130;6.612;2023-03-01T18:41:23;2.88;;;1.70;;
29320;SDS011;16323;51.130;6.612;2023-03-01T18:43:52;3.53;;;2.13;;
29320;SDS011;16323;51.130;6.612;2023-03-01T18:46:19;2.78;;;1.80;;
29320;SDS011;16323;51.130;6.612;2023-03-01T18:48:47;2.85;;;1.88;;
29320;SDS011;16323;51.130;6.612;2023-03-01T18:51:14;4.53;;;2.15;;
29320;SDS011;16323;51.130;6.612;2023-03-01T18:53:43;3.85;;;2.17;;
29320;SDS011;16323;51.130;6.612;2023-03-01T18:56:10;3.45;;;1.80;;
29320;SDS011;16323;51.130;6.612;2023-03-01T18:58:39;3.22;;;2.25;;
29320;SDS011;16323;51.130;6.612;2023-03-01T19:01:10;3.78;;;1.83;;
29320;SDS011;16323;51.130;6.612;2023-03-01T19:03:39;3.65;;;2.17;;
29320;SDS011;16323;51.130;6.612;2023-03-01T19:06:06;2.95;;;1.88;;
29320;SDS011;16323;51.130;6.612;2023-03-01T19:08:33;3.08;;;1.95;;
29320;SDS011;16323;51.130;6.612;2023-03-01T19:11:00;4.63;;;2.20;;
29320;SDS011;16323;51.130;6.612;2023-03-01T19:13:28;3.45;;;1.90;;
29320;SDS011;16323;51.130;6.612;2023-03-01T19:16:02;3.05;;;2.03;;
29320;SDS011;16323;51.130;6.612;2023-03-01T19:18:30;3.63;;;2.25;;
29320;SDS011;16323;51.130;6.612;2023-03-01T19:20:57;3.05;;;2.00;;
29320;SDS011;16323;51.130;6.612;2023-03-01T19:23:24;3.10;;;1.75;;
29320;SDS011;16323;51.130;6.612;2023-03-01T19:25:51;3.17;;;1.85;;
29320;SDS011;16323;51.130;6.612;2023-03-01T19:28:24;4.45;;;2.10;;
29320;SDS011;16323;51.130;6.612;2023-03-01T19:30:50;5.50;;;2.08;;
29320;SDS011;16323;51.130;6.612;2023-03-01T19:33:18;4.90;;;2.33;;
29320;SDS011;16323;51.130;6.612;2023-03-01T19:35:45;3.20;;;2.20;;
29320;SDS011;16323;51.130;6.612;2023-03-01T19:38:12;2.80;;;2.10;;
29320;SDS011;16323;51.130;6.612;2023-03-01T19:40:39;4.32;;;2.30;;
29320;SDS011;16323;51.130;6.612;2023-03-01T19:43:06;2.92;;;1.98;;
29320;SDS011;16323;51.130;6.612;2023-03-01T19:45:33;3.35;;;1.88;;
29320;SDS011;16323;51.130;6.612;2023-03-01T19:48:00;3.80;;;2.10;;
29320;SDS011;16323;51.130;6.612;2023-03-01T19:50:28;3.67;;;1.92;;
29320;SDS011;16323;51.130;6.612;2023-03-01T19:52:55;4.40;;;2.17;;
29320;SDS011;16323;51.130;6.612;2023-03-01T19:55:22;3.15;;;2.03;;
29320;SDS011;16323;51.130;6.612;2023-03-01T19:57:48;3.30;;;2.10;;
29320;SDS011;16323;51.130;6.612;2023-03-01T20:00:15;3.55;;;2.10;;
29320;SDS011;16323;51.130;6.612;2023-03-01T20:02:42;4.78;;;2.45;;
29320;SDS011;16323;51.130;6.612;2023-03-01T20:05:09;3.70;;;2.22;;
29320;SDS011;16323;51.130;6.612;2023-03-01T20:07:37;3.25;;;1.92;;
29320;SDS011;16323;51.130;6.612;2023-03-01T20:10:05;2.75;;;2.10;;
29320;SDS011;16323;51.130;6.612;2023-03-01T20:12:34;3.22;;;2.25;;
29320;SDS011;16323;51.130;6.612;2023-03-01T20:15:01;5.20;;;2.20;;
29320;SDS011;16323;51.130;6.612;2023-03-01T20:17:28;3.20;;;2.00;;
29320;SDS011;16323;51.130;6.612;2023-03-01T20:19:54;3.38;;;2.40;;
29320;SDS011;16323;51.130;6.612;2023-03-01T20:22:21;3.15;;;1.80;;
29320;SDS011;16323;51.130;6.612;2023-03-01T20:24:49;3.83;;;2.40;;
29320;SDS011;16323;51.130;6.612;2023-03-01T20:27:16;4.60;;;2.45;;
29320;SDS011;16323;51.130;6.612;2023-03-01T20:29:43;4.25;;;2.17;;
29320;SDS011;16323;51.130;6.612;2023-03-01T20:32:10;3.15;;;2.20;;
29320;SDS011;16323;51.130;6.612;2023-03-01T20:34:38;5.47;;;2.38;;
29320;SDS011;16323;51.130;6.612;2023-03-01T20:37:04;2.78;;;1.90;;
29320;SDS011;16323;51.130;6.612;2023-03-01T20:39:32;3.88;;;2.45;;
29320;SDS011;16323;51.130;6.612;2023-03-01T20:42:01;3.70;;;2.35;;
29320;SDS011;16323;51.130;6.612;2023-03-01T20:44:28;4.10;;;2.47;;
29320;SDS011;16323;51.130;6.612;2023-03-01T20:46:54;3.85;;;2.20;;
29320;SDS011;16323;51.130;6.612;2023-03-01T20:49:22;4.82;;;2.45;;
29320;SDS011;16323;51.130;6.612;2023-03-01T20:51:49;4.57;;;2.55;;
29320;SDS011;16323;51.130;6.612;2023-03-01T20:54:15;3.65;;;2.33;;
29320;SDS011;16323;51.130;6.612;2023-03-01T20:56:42;3.47;;;2.20;;
29320;SDS011;16323;51.130;6.612;2023-03-01T20:59:11;3.90;;;2.55;;
29320;SDS011;16323;51.130;6.612;2023-03-01T21:01:39;3.70;;;2.38;;
29320;SDS011;16323;51.130;6.612;2023-03-01T21:04:06;3.58;;;2.25;;
29320;SDS011;16323;51.130;6.612;2023-03-01T21:06:33;3.88;;;2.17;;
29320;SDS011;16323;51.130;6.612;2023-03-01T21:08:59;4.57;;;2.47;;
29320;SDS011;16323;51.130;6.612;2023-03-01T21:11:26;4.80;;;2.75;;
29320;SDS011;16323;51.130;6.612;2023-03-01T21:13:53;3.67;;;2.33;;
29320;SDS011;16323;51.130;6.612;2023-03-01T21:16:22;4.07;;;2.83;;
29320;SDS011;16323;51.130;6.612;2023-03-01T21:18:49;4.82;;;2.72;;
29320;SDS011;16323;51.130;6.612;2023-03-01T21:21:16;3.58;;;2.30;;
29320;SDS011;16323;51.130;6.612;2023-03-01T21:23:45;5.78;;;2.33;;
29320;SDS011;16323;51.130;6.612;2023-03-01T21:26:13;4.38;;;2.83;;
29320;SDS011;16323;51.130;6.612;2023-03-01T21:28:43;3.65;;;2.40;;
29320;SDS011;16323;51.130;6.612;2023-03-01T21:31:11;4.35;;;2.58;;
29320;SDS011;16323;51.130;6.612;2023-03-01T21:33:43;5.57;;;2.65;;
29320;SDS011;16323;51.130;6.612;2023-03-01T21:36:12;4.68;;;2.58;;
29320;SDS011;16323;51.130;6.612;2023-03-01T21:38:40;4.05;;;2.55;;
29320;SDS011;16323;51.130;6.612;2023-03-01T21:41:08;5.18;;;2.95;;
29320;SDS011;16323;51.130;6.612;2023-03-01T21:43:36;4.80;;;2.63;;
29320;SDS011;16323;51.130;6.612;2023-03-01T21:46:05;5.78;;;2.40;;
29320;SDS011;16323;51.130;6.612;2023-03-01T21:48:34;4.88;;;2.70;;
29320;SDS011;16323;51.130;6.612;2023-03-01T21:51:03;4.28;;;2.65;;
29320;SDS011;16323;51.130;6.612;2023-03-01T21:53:31;5.38;;;3.03;;
29320;SDS011;16323;51.130;6.612;2023-03-01T21:55:59;5.07;;;2.83;;
29320;SDS011;16323;51.130;6.612;2023-03-01T21:58:27;4.50;;;2.80;;
29320;SDS011;16323;51.130;6.612;2023-03-01T22:00:55;5.45;;;3.10;;
29320;SDS011;16323;51.130;6.612;2023-03-01T22:03:24;6.93;;;3.20;;
29320;SDS011;16323;51.130;6.612;2023-03-01T22:05:55;6.60;;;3.47;;
29320;SDS011;16323;51.130;6.612;2023-03-01T22:08:24;4.10;;;2.70;;
29320;SDS011;16323;51.130;6.612;2023-03-01T22:10:52;7.32;;;3.00;;
29320;SDS011;16323;51.130;6.612;2023-03-01T22:13:19;7.50;;;3.45;;
29320;SDS011;16323;51.130;6.612;2023-03-01T22:15:46;4.95;;;3.47;;
29320;SDS011;16323;51.130;6.612;2023-03-01T22:18:13;6.18;;;3.40;;
29320;SDS011;16323;51.130;6.612;2023-03-01T22:20:40;5.30;;;3.03;;
29320;SDS011;16323;51.130;6.612;2023-03-01T22:23:07;4.28;;;2.50;;
29320;SDS011;16323;51.130;6.612;2023-03-01T22:25:40;5.22;;;3.10;;
29320;SDS011;16323;51.130;6.612;2023-03-01T22:28:07;7.38;;;3.20;;
29320;SDS011;16323;51.130;6.612;2023-03-01T22:30:34;4.82;;;2.88;;
29320;SDS011;16323;51.130;6.612;2023-03-01T22:33:01;4.68;;;3.17;;
29320;SDS011;16323;51.130;6.612;2023-03-01T22:35:28;5.28;;;3.05;;
29320;SDS011;16323;51.130;6.612;2023-03-01T22:37:55;6.35;;;3.08;;
29320;SDS011;16323;51.130;6.612;2023-03-01T22:40:21;4.25;;;2.55;;
29320;SDS011;16323;51.130;6.612;2023-03-01T22:42:50;4.68;;;2.80;;
29320;SDS011;16323;51.130;6.612;2023-03-01T22:45:18;5.63;;;2.85;;
29320;SDS011;16323;51.130;6.612;2023-03-01T22:47:45;4.70;;;2.70;;
29320;SDS011;16323;51.130;6.612;2023-03-01T22:50:12;5.30;;;2.75;;
29320;SDS011;16323;51.130;6.612;2023-03-01T22:52:39;5.07;;;3.20;;
29320;SDS011;16323;51.130;6.612;2023-03-01T22:55:07;5.03;;;2.63;;
29320;SDS011;16323;51.130;6.612;2023-03-01T22:57:34;4.60;;;2.72;;
29320;SDS011;16323;51.130;6.612;2023-03-01T23:00:03;4.55;;;2.85;;
29320;SDS011;16323;51.130;6.612;2023-03-01T23:02:37;6.60;;;3.25;;
29320;SDS011;16323;51.130;6.612;2023-03-01T23:05:04;3.88;;;2.80;;
29320;SDS011;16323;51.130;6.612;2023-03-01T23:07:31;6.72;;;2.60;;
29320;SDS011;16323;51.130;6.612;2023-03-01T23:09:58;5.88;;;2.58;;
29320;SDS011;16323;51.130;6.612;2023-03-01T23:12:26;3.65;;;2.63;;
29320;SDS011;16323;51.130;6.612;2023-03-01T23:14:53;4.60;;;2.63;;
29320;SDS011;16323;51.130;6.612;2023-03-01T23:17:21;4.47;;;2.60;;
29320;SDS011;16323;51.130;6.612;2023-03-01T23:19:48;4.32;;;2.60;;
29320;SDS011;16323;51.130;6.612;2023-03-01T23:22:15;4.60;;;2.55;;
29320;SDS011;16323;51.130;6.612;2023-03-01T23:24:42;5.90;;;2.38;;
29320;SDS011;16323;51.130;6.612;2023-03-01T23:27:09;4.53;;;2.65;;
29320;SDS011;16323;51.130;6.612;2023-03-01T23:29:37;4.38;;;2.65;;
29320;SDS011;16323;51.130;6.612;2023-03-01T23:32:04;5.68;;;2.88;;
29320;SDS011;16323;51.130;6.612;2023-03-01T23:34:33;4.85;;;2.35;;
29320;SDS011;16323;51.130;6.612;2023-03-01T23:37:01;3.97;;;2.33;;
29320;SDS011;16323;51.130;6.612;2023-03-01T23:39:28;4.28;;;2.63;;
29320;SDS011;16323;51.130;6.612;2023-03-01T23:41:56;6.57;;;2.72;;
29320;SDS011;16323;51.130;6.612;2023-03-01T23:44:23;4.15;;;2.35;;
29320;SDS011;16323;51.130;6.612;2023-03-01T23:46:50;6.32;;;2.47;;
29320;SDS011;16323;51.130;6.612;2023-03-01T23:49:18;3.55;;;2.40;;
29320;SDS011;16323;51.130;6.612;2023-03-01T23:51:48;4.63;;;2.42;;
29320;SDS011;16323;51.130;6.612;2023-03-01T23:54:16;5.43;;;2.95;;
29320;SDS011;16323;51.130;6.612;2023-03-01T23:56:44;3.70;;;2.33;;
29320;SDS011;16323;51.130;6.612;2023-03-01T23:59:13;3.90;;;2.38;;
